Relevés horaires Schaffhausen (Suisse)


Relevés horaires à Schaffhausen - Dimanche 01 Avr. 2007
Heure UTC1 Température [°C] Vent [km/h] Hum. [%] Pres.4 [hPa] Visi. [Km] Nébu. [octa] Préc.5 [mm] Cond.
2m. Res. Ros. Dir.2 Vit. Moy. Raf.3
23:00 6.7 5.8 3.8 NE 5.6 14.8 18.5 82 1025.5(0.5/3h) -- -- -- --
22:00 7.7 5.7 4.3 N 11.1 14.8 20.4 79 1025(0.6/3h) -- -- -- --
21:00 8.2 5.7 4.9 NNE 14.8 14.8 22.2 80 1024.8(1.1/3h) 5 0/8 -- Brouillard
20:00 9.0 7.2 5.3 N 11.1 11.1 16.7 78 1024.5(1.2/3h) -- -- -- --
19:00 10.7 10.7 5.3 N 3.7 7.4 13.0 69 1023.8(1.3/3h) -- -- -- --
18:00 12.5 12.5 5.0 E 3.7 14.8 25.9 60 1022.8(0.8/3h) 8 1/8 0/0h
Brouillard
17:00 13.5 12.9 5.8 E 9.3 11.1 22.2 60 1022.3(0.2/3h) -- -- -- --
16:00 14.1 13.6 4.4 E 9.3 14.8 25.9 52 1021.8(-0.4/3h) -- -- -- --
15:00 14.2 13.5 5.9 ENE 11.1 14.8 25.9 57 1021.7(-0.4/3h) 9 0/8 -- Brouillard
14:00 13.3 13.3 5.3 ENE 5.6 13.0 25.9 58 1022.2(-0.3/3h) -- -- -- --
13:00 12.4 11.3 5.0 ENE 11.1 13.0 22.2 61 1022.6(0.1/3h) -- -- -- --
12:00 10.5 9.1 5.4 E 11.1 11.1 22.2 71 1022.8(-0.1/3h) 10 4/8 0/0h
Brouillard
11:00 8.8 7.7 4.9 E 7.4 7.4 16.7 76 1023.4(0.6/3h) -- -- -- --
10:00 7.5 6.7 4.7 E 5.6 9.3 16.7 82 1023.6(1.4/3h) -- -- -- --
09:00 6.1 4.6 3.5 NE 7.4 9.3 16.7 83 1023.8(2.1/3h) 2 8/8 -- Brouillard
08:00 5.0 3.9 2.5 ENE 5.6 9.3 11.1 84 1023.5(2.2/3h) -- -- -- --
07:00 3.9 1.5 2.0 O 9.3 -- -- 87 1022.9 -- -- -- --
06:00 2.6 2.6 1.2 N 3.7 -- -- 90 1022.3 -- -- -- --
05:00 3.1 1.1 1.6 NE 7.4 9.3 11.1 90 1021.5(1.2/3h) -- -- -- --
04:00 3.6 3.6 2.3 NE 3.7 9.3 11.1 91 1020.7(0.7/3h) -- -- -- --
03:00 4.8 3.1 3.0 NNE 7.4 13.0 16.7 88 1020.3(0.6/3h) 6 0/8 -- Brouillard
02:00 5.8 4.2 3.6 NE 7.4 9.3 11.1 86 1019.7(0.8/3h) -- -- -- --
01:00 6.8 5.9 3.8 NNE 5.6 11.1 13.0 81 1019.3(0.9/3h) -- -- -- --
00:00 6.9 5.5 3.5 NE 7.4 13.0 16.7 79 1019.2(0.9/3h) 5 4/8 0/0h
Brouillard

1 Coordinated Universal Time. Actuellement il est 01:00 locale et 23:00 UTC.

2 Le vent souffle depuis la direction indiquée vers la direction oposée.

3 Les rafales max. sont disponible 40 min après l'heure du relevé.

4 Pour les stations d'altitude (plus de 600m) le géopotentiel du niveau le plus proche de la pression obligatoire est indiqué.

5 Les stations disposant d'un diffuseur peuvent indiquer "trace". Cela signifie que des précipitations ont touchés le sol mais que la quantité est inférieure à 0.1 mm.

Copyright

Les données affichées sur cette page sont la propriété exclusive de Météo Suisse.

Récapitulatif de la journée
Température [°C] Vent [km/h] Ensoleillement4 [h] Precipitations totale5 [mm] Pression [Hpa]
Min1 Max.2 Moy.3 Max. Min Max.
2.5 14.8 11.6 25.9 4 h 48 min 0 1019.2 1025.5

1 Température minimale relevée entre 18:00 UTC la veille et 18:00 UTC le jour donné.

2 Température maximale relevée entre 06:00 UTC le jour donné et 06:00 UTC le lendemain.

3 Vent moyen de la journée basé sur les relevés horaires.

4 Ensoleillement en heures relevé entre 06:00 UTC la veille et 06:00 UTC le jour donné.

5 Précipitations totales tombées entre 06:00 UTC la jour donné et 06:00 UTC le lendemain.

Graphiques horaires